Time;durP1;ratioP1;P1;durP2;ratioP2;P2;SDS_P1;SDS_P2;PMS_P1;PMS_P2;Temp;Humidity;BMP_temperature;BMP_pressure;BME280_temperature;BME280_humidity;BME280_pressure;Samples;Min_cycle;Max_cycle;Signal;HPM_P1;HPM_P2
2023/09/09 07:23:16;;;;;;;92.25;83.63;;;;;;;-145.79;94.03;77033.91;5295731;27;20353;-67
2023/09/09 07:25:48;;;;;;;89.20;80.82;;;;;;;-145.79;93.66;77025.44;5290677;28;20090;-66
2023/09/09 07:28:20;;;;;;;90.07;81.82;;;;;;;-145.79;93.79;77000.00;5290858;28;20070;-66
2023/09/09 07:30:52;;;;;;;87.75;79.63;;;;;;;-145.79;92.87;76980.94;5291975;28;20024;-67
2023/09/09 07:33:23;;;;;;;89.90;81.45;;;;;;;-145.79;93.03;76961.84;5292894;28;20050;-67
2023/09/09 07:35:54;;;;;;;77.60;70.68;;;;;;;-145.79;92.42;76942.78;5288686;28;20041;-67
2023/09/09 07:38:26;;;;;;;79.10;71.95;;;;;;;-145.79;91.57;76944.91;5296266;28;20032;-66
2023/09/09 07:40:58;;;;;;;78.90;71.32;;;;;;;-145.79;91.31;76921.59;5289498;28;20467;-67
2023/09/09 07:43:29;;;;;;;73.15;66.47;;;;;;;-145.79;90.55;76910.97;5298709;28;20028;-67
2023/09/09 07:46:01;;;;;;;80.18;73.13;;;;;;;-145.79;90.87;76923.69;5299573;28;20028;-66
2023/09/09 07:48:32;;;;;;;78.13;71.18;;;;;;;-145.79;90.55;76902.50;5295995;28;20454;-67
2023/09/09 07:51:03;;;;;;;81.80;74.47;;;;;;;-145.79;90.64;76896.16;5288340;28;20047;-66
2023/09/09 07:53:35;;;;;;;85.55;77.97;;;;;;;-145.79;90.11;76896.16;5299559;28;20016;-67
2023/09/09 07:56:06;;;;;;;83.32;75.90;;;;;;;-145.79;90.55;76896.16;5299485;28;20036;-67
2023/09/09 07:58:37;;;;;;;76.75;69.93;;;;;;;-145.79;89.93;76866.47;5291463;28;20115;-67
2023/09/09 08:01:10;;;;;;;85.97;78.20;;;;;;;-145.79;89.71;76858.00;5299600;28;20034;-68
2023/09/09 08:03:41;;;;;;;81.45;74.13;;;;;;;-145.79;89.02;76862.25;5292016;28;20101;-67
2023/09/09 08:06:12;;;;;;;84.55;77.10;;;;;;;-145.79;88.92;76847.41;5293794;28;20059;-66
2023/09/09 08:08:44;;;;;;;81.22;74.20;;;;;;;-145.79;89.00;76838.94;5289420;28;20082;-67
2023/09/09 08:11:17;;;;;;;79.90;72.90;;;;;;;-145.79;88.52;76834.69;5290808;28;20038;-66
2023/09/09 08:13:48;;;;;;;72.40;65.90;;;;;;;-145.79;87.63;76826.22;5296450;28;20458;-66
2023/09/09 08:16:19;;;;;;;101.53;92.95;;;;;;;-145.79;88.12;76817.72;5294709;28;20111;-66
2023/09/09 08:18:51;;;;;;;90.50;82.70;;;;;;;-145.79;87.81;76813.50;5289337;28;20028;-66
2023/09/09 08:21:22;;;;;;;75.43;68.70;;;;;;;-145.79;87.57;76805.00;5295244;28;20047;-66
2023/09/09 08:23:58;;;;;;;71.43;64.95;;;;;;;-145.79;86.72;76798.66;5318504;28;20020;-66
2023/09/09 08:26:30;;;;;;;70.50;64.18;;;;;;;-145.79;86.67;76798.66;5311046;28;20028;-66
2023/09/09 08:29:01;;;;;;;71.05;64.88;;;;;;;-145.79;86.44;76800.78;5310412;28;20035;-67
2023/09/09 08:31:35;;;;;;;68.72;62.70;;;;;;;-145.79;86.15;76779.59;5304679;28;20502;-67
2023/09/09 08:34:06;;;;;;;72.47;66.28;;;;;;;-145.79;85.81;76760.50;5297883;28;20036;-66
2023/09/09 08:36:37;;;;;;;68.85;62.83;;;;;;;-145.79;85.65;76756.28;5300518;28;20028;-67
2023/09/09 08:39:11;;;;;;;63.40;57.92;;;;;;;-145.79;84.84;76760.50;5300111;28;20383;-66
2023/09/09 08:41:42;;;;;;;64.18;58.53;;;;;;;-145.79;84.91;76754.16;5294053;28;20025;-66
2023/09/09 08:44:19;;;;;;;63.38;57.67;;;;;;;-145.79;84.89;76758.38;5294136;28;20043;-67
2023/09/09 08:46:52;;;;;;;61.70;56.30;;;;;;;-145.79;84.27;76758.38;5304270;28;20068;-68
2023/09/09 08:49:27;;;;;;;78.63;71.82;;;;;;;-145.79;84.50;76754.16;5300724;28;20028;-68
2023/09/09 08:52:03;;;;;;;57.65;52.72;;;;;;;-145.79;84.56;76747.78;5292883;28;20157;-67
2023/09/09 08:54:35;;;;;;;53.75;48.95;;;;;;;-145.79;83.99;76741.44;5296911;28;20055;-69
2023/09/09 08:57:06;;;;;;;48.30;44.05;;;;;;;-145.79;83.00;76732.97;5299140;28;20040;-66
2023/09/09 08:59:38;;;;;;;46.88;42.70;;;;;;;-145.79;83.23;76724.47;5296336;28;20099;-67
2023/09/09 09:02:12;;;;;;;46.92;42.72;;;;;;;-145.79;82.90;76705.41;5301103;28;20043;-67
2023/09/09 09:04:44;;;;;;;40.55;37.17;;;;;;;-145.79;81.74;76707.53;5304249;28;20032;-68
2023/09/09 09:07:16;;;;;;;40.97;37.47;;;;;;;-145.79;81.35;76692.69;5298933;28;20484;-69
2023/09/09 09:09:47;;;;;;;38.95;35.60;;;;;;;-145.79;80.52;76682.09;5297037;28;20035;-67
2023/09/09 09:12:19;;;;;;;29.63;27.02;;;;;;;-145.79;78.91;76684.22;5302960;28;20024;-66
2023/09/09 09:14:50;;;;;;;28.85;26.33;;;;;;;-145.79;78.88;76667.25;5303208;28;20059;-67
2023/09/09 09:17:23;;;;;;;27.70;25.15;;;;;;;-145.79;79.13;76658.78;5296807;28;20024;-67
2023/09/09 09:19:55;;;;;;;27.10;24.80;;;;;;;-145.79;78.62;76652.44;5302109;28;20047;-67
2023/09/09 09:22:29;;;;;;;26.05;23.83;;;;;;;-145.79;77.63;76656.66;5301508;28;20074;-67
2023/09/09 09:25:00;;;;;;;29.53;27.10;;;;;;;-145.79;77.25;76652.44;5298299;28;20111;-67
2023/09/09 09:27:31;;;;;;;25.85;23.55;;;;;;;-145.79;77.50;76637.59;5291491;28;20103;-67
2023/09/09 09:30:06;;;;;;;28.88;26.58;;;;;;;-145.79;77.71;76631.22;5293656;28;20492;-67
2023/09/09 09:32:42;;;;;;;24.55;22.35;;;;;;;-145.79;76.51;76622.75;5299540;28;20024;-67
2023/09/09 09:35:32;;;;;;;19.73;17.92;;;;;;;-145.79;75.10;76603.69;5294599;28;20107;-68
2023/09/09 09:38:09;;;;;;;14.68;13.38;;;;;;;-145.79;70.68;76582.50;5303148;28;20464;-67
2023/09/09 09:40:41;;;;;;;16.95;15.30;;;;;;;-145.79;70.36;76586.72;5299686;28;20431;-67
2023/09/09 09:43:20;;;;;;;16.90;15.50;;;;;;;-145.79;72.27;76571.91;5304410;28;20039;-65
2023/09/09 09:45:51;;;;;;;12.50;11.38;;;;;;;-145.79;68.59;76578.25;5303103;28;20081;-65
2023/09/09 09:48:26;;;;;;;8.77;7.88;;;;;;;-145.79;64.15;76565.53;5293738;28;20475;-66
2023/09/09 09:50:58;;;;;;;11.43;10.43;;;;;;;-145.79;65.14;76557.06;5292915;28;20036;-67
2023/09/09 09:53:29;;;;;;;12.00;10.43;;;;;;;-145.79;66.52;76552.81;5294481;28;20090;-66
2023/09/09 09:56:02;;;;;;;23.95;21.75;;;;;;;-145.79;66.31;76542.22;5292074;28;20082;-65
2023/09/09 09:58:36;;;;;;;46.97;42.75;;;;;;;-145.79;64.84;76533.75;5301089;28;20447;-65
2023/09/09 10:01:08;;;;;;;9.57;8.55;;;;;;;-145.79;62.08;76527.38;5300849;28;20107;-66
2023/09/09 10:03:48;;;;;;;12.18;10.98;;;;;;;-145.79;61.16;76497.72;5302933;28;20452;-67
2023/09/09 10:06:26;;;;;;;11.90;10.70;;;;;;;-145.79;61.99;76487.13;5298603;28;20056;-66
2023/09/09 10:09:06;;;;;;;12.82;11.65;;;;;;;-145.79;63.33;76476.53;5301778;28;20024;-64
2023/09/09 10:11:49;;;;;;;12.68;11.48;;;;;;;-145.79;63.38;76487.13;5299700;28;20020;-64
2023/09/09 10:14:25;;;;;;;12.10;11.10;;;;;;;-145.79;63.31;76482.88;5297998;28;20021;-64
2023/09/09 10:16:57;;;;;;;13.75;12.40;;;;;;;-145.79;56.18;76474.41;5297620;28;20463;-64
2023/09/09 10:19:29;;;;;;;6.60;5.93;;;;;;;-145.79;56.49;76455.34;5295729;28;20108;-63
2023/09/09 10:22:01;;;;;;;10.23;9.23;;;;;;;-145.79;53.65;76453.22;5294792;28;20052;-66
2023/09/09 10:24:35;;;;;;;8.68;7.07;;;;;;;-145.79;55.41;76453.22;5293889;28;20024;-65
2023/09/09 10:27:08;;;;;;;11.00;9.90;;;;;;;-145.79;58.97;76440.50;5287035;28;20567;-66
2023/09/09 10:29:41;;;;;;;21.02;19.17;;;;;;;-145.79;61.29;76425.66;5293102;28;20032;-68
2023/09/09 10:32:14;;;;;;;12.73;11.32;;;;;;;-145.79;60.04;76438.38;5299385;28;20021;-66
2023/09/09 10:34:46;;;;;;;10.50;9.60;;;;;;;-145.79;59.44;76432.03;5294127;28;20407;-67
2023/09/09 10:37:18;;;;;;;8.77;8.07;;;;;;;-145.79;60.17;76404.47;5291816;28;20028;-68
2023/09/09 10:39:50;;;;;;;9.60;8.65;;;;;;;-145.79;61.38;76408.72;5291317;28;20025;-67
2023/09/09 10:42:22;;;;;;;18.60;16.90;;;;;;;-145.79;61.76;76389.66;5294412;28;20086;-67
2023/09/09 10:44:54;;;;;;;10.65;9.75;;;;;;;-145.79;61.75;76381.16;5293339;28;20024;-67
2023/09/09 10:47:25;;;;;;;10.38;9.38;;;;;;;-145.79;62.02;76368.47;5300305;28;20028;-67
2023/09/09 10:50:06;;;;;;;10.57;9.68;;;;;;;-145.79;60.77;76368.47;5293199;28;20032;-66
2023/09/09 10:52:38;;;;;;;17.52;15.98;;;;;;;-145.79;59.86;76376.94;5294378;28;20043;-66
2023/09/09 10:55:13;;;;;;;30.10;27.30;;;;;;;-145.79;60.75;76368.47;5295262;28;20125;-66
2023/09/09 10:57:56;;;;;;;60.88;56.20;;;;;;;-145.79;59.75;76355.75;5290297;28;20106;-66
2023/09/09 11:00:41;;;;;;;9.23;8.27;;;;;;;-145.79;59.03;76353.63;5291823;28;20048;-66
2023/09/09 11:03:22;;;;;;;8.57;6.22;;;;;;;-145.79;55.72;76326.06;5294897;28;20089;-67
2023/09/09 11:06:05;;;;;;;6.78;6.28;;;;;;;-145.79;55.28;76330.31;5294293;28;20020;-68
2023/09/09 11:08:47;;;;;;;5.03;4.63;;;;;;;-145.79;53.60;76298.53;5293880;28;20106;-69
2023/09/09 11:11:24;;;;;;;7.78;7.07;;;;;;;-145.79;53.29;76302.75;5290545;28;20032;-67
2023/09/09 11:13:55;;;;;;;6.75;6.15;;;;;;;-145.79;51.93;76304.88;5293192;28;20546;-68
2023/09/09 11:16:40;;;;;;;7.28;5.70;;;;;;;-145.79;51.36;76279.47;5295156;28;20028;-68
2023/09/09 11:19:13;;;;;;;7.20;5.30;;;;;;;-145.79;49.16;76292.16;5289555;28;20032;-66
2023/09/09 11:21:47;;;;;;;5.65;5.15;;;;;;;-145.79;50.43;76266.75;5290079;28;20040;-67
2023/09/09 11:24:19;;;;;;;6.70;6.10;;;;;;;-145.79;50.58;76251.91;5294868;28;20043;-66
2023/09/09 11:26:51;;;;;;;6.25;5.40;;;;;;;-145.79;48.82;76243.44;5287981;28;20012;-66
2023/09/09 11:29:22;;;;;;;5.95;5.05;;;;;;;-145.79;48.61;76247.66;5302298;28;20024;-67
2023/09/09 11:31:53;;;;;;;6.00;5.43;;;;;;;-145.79;49.76;76234.97;5301185;28;20020;-66
2023/09/09 11:34:30;;;;;;;5.70;5.20;;;;;;;-145.79;48.99;76245.56;5291544;28;20032;-65
2023/09/09 11:37:03;;;;;;;5.10;4.70;;;;;;;-145.79;48.95;76245.56;5291751;28;20044;-64
2023/09/09 11:39:41;;;;;;;5.60;5.10;;;;;;;-145.79;48.76;76226.47;5296576;28;20024;-65
2023/09/09 11:42:12;;;;;;;6.40;5.25;;;;;;;-145.79;49.04;76194.69;5291375;28;20483;-67
2023/09/09 11:44:46;;;;;;;6.05;5.55;;;;;;;-145.79;49.05;76220.13;5296220;28;20062;-67
2023/09/09 11:47:18;;;;;;;5.55;5.05;;;;;;;-145.79;48.76;76211.66;5292202;28;20319;-67
2023/09/09 11:49:49;;;;;;;5.40;4.90;;;;;;;-145.79;48.21;76181.97;5290200;28;20096;-67
2023/09/09 11:52:22;;;;;;;6.80;6.18;;;;;;;-145.79;49.10;76177.75;5291829;28;20459;-66
2023/09/09 11:54:53;;;;;;;6.60;4.97;;;;;;;-145.79;48.92;76148.06;5293500;28;20058;-66
2023/09/09 11:57:24;;;;;;;24.60;22.55;;;;;;;-145.79;46.75;76171.38;5298910;28;20016;-66
2023/09/09 11:59:57;;;;;;;7.68;6.07;;;;;;;-145.79;47.19;76184.09;5292737;28;20039;-67
2023/09/09 12:02:28;;;;;;;5.63;4.65;;;;;;;-145.79;47.44;76167.16;5293291;28;20119;-66
2023/09/09 12:05:01;;;;;;;5.30;4.80;;;;;;;-145.79;47.67;76148.06;5301322;28;20099;-66
2023/09/09 12:07:36;;;;;;;4.70;4.30;;;;;;;-145.79;46.92;76141.72;5293417;28;20020;-66
2023/09/09 12:10:12;;;;;;;4.10;3.70;;;;;;;-145.79;45.21;76131.13;5291168;28;20024;-66
2023/09/09 12:12:47;;;;;;;4.43;4.03;;;;;;;-145.79;45.01;76105.69;5292605;28;20063;-65
2023/09/09 12:15:19;;;;;;;6.88;4.72;;;;;;;-145.79;45.78;76122.66;5297545;28;20055;-66
2023/09/09 12:17:50;;;;;;;5.80;4.53;;;;;;;-145.79;46.72;76114.19;5297254;28;20052;-66
2023/09/09 12:20:22;;;;;;;5.07;4.68;;;;;;;-145.79;47.36;76099.34;5298487;28;20112;-64
2023/09/09 12:22:53;;;;;;;4.97;4.30;;;;;;;-145.79;46.55;76069.69;5295279;28;20044;-65
2023/09/09 12:25:31;;;;;;;5.55;5.05;;;;;;;-145.79;47.16;76076.03;5293916;28;20446;-65
2023/09/09 12:28:03;;;;;;;10.43;9.52;;;;;;;-145.79;47.17;76076.03;5296097;28;20039;-65
2023/09/09 12:30:35;;;;;;;6.45;5.78;;;;;;;-145.79;46.90;76054.84;5304857;28;20028;-66
2023/09/09 12:33:14;;;;;;;5.05;4.55;;;;;;;-145.79;47.19;76044.25;5301967;28;20032;-65
2023/09/09 12:35:47;;;;;;;5.60;5.10;;;;;;;-145.79;47.28;76048.47;5302576;28;20027;-66
2023/09/09 12:38:20;;;;;;;4.55;4.15;;;;;;;-145.79;47.05;76025.19;5291893;28;20032;-65
2023/09/09 12:41:03;;;;;;;5.28;4.53;;;;;;;-145.79;45.97;76031.53;5302631;28;20024;-66
2023/09/09 12:43:34;;;;;;;9.00;5.63;;;;;;;-145.79;46.43;76029.41;5296778;28;20031;-66
2023/09/09 12:46:08;;;;;;;4.88;4.38;;;;;;;-145.79;46.25;76023.06;5303805;28;20048;-65
2023/09/09 12:48:55;;;;;;;5.90;4.50;;;;;;;-145.79;46.96;76004.00;5297779;28;20024;-64
2023/09/09 12:51:35;;;;;;;5.53;5.03;;;;;;;-145.79;46.18;76016.69;5297159;28;20032;-65
2023/09/09 12:54:07;;;;;;;12.52;11.32;;;;;;;-145.79;46.61;75995.50;5304884;28;20020;-65
2023/09/09 12:56:38;;;;;;;5.13;4.63;;;;;;;-145.79;46.60;75972.22;5294415;28;20503;-65
2023/09/09 12:59:09;;;;;;;5.60;4.63;;;;;;;-145.79;45.85;75957.38;5299333;28;20365;-65
2023/09/09 13:01:40;;;;;;;7.10;4.60;;;;;;;-145.79;45.84;75940.41;5286812;28;20020;-65
2023/09/09 13:04:12;;;;;;;5.90;4.35;;;;;;;-145.79;46.28;75927.72;5298726;28;20025;-66
2023/09/09 13:06:43;;;;;;;5.85;5.25;;;;;;;-145.79;45.37;75938.31;5299259;28;20024;-66
2023/09/09 13:09:14;;;;;;;7.00;4.80;;;;;;;-145.79;45.19;75923.47;5303669;28;20093;-66
2023/09/09 13:11:46;;;;;;;6.68;5.00;;;;;;;-145.79;45.03;75931.94;5296101;28;20028;-66
2023/09/09 13:14:17;;;;;;;4.65;4.22;;;;;;;-145.79;46.06;75906.53;5296674;28;20059;-66
2023/09/09 13:16:49;;;;;;;6.88;4.47;;;;;;;-145.79;45.20;75906.53;5297523;28;20471;-65
2023/09/09 13:19:21;;;;;;;6.45;5.07;;;;;;;-145.79;45.64;75915.00;5299820;28;20017;-66
2023/09/09 13:21:52;;;;;;;6.40;4.45;;;;;;;-145.79;45.64;75885.34;5296117;28;20043;-66
2023/09/09 13:24:24;;;;;;;8.73;7.85;;;;;;;-145.79;45.83;75883.22;5296546;28;20036;-66
2023/09/09 13:26:55;;;;;;;5.20;4.70;;;;;;;-145.79;45.75;75859.91;5294048;28;20036;-66
2023/09/09 13:29:26;;;;;;;8.05;4.75;;;;;;;-145.79;45.00;75881.09;5297675;28;20028;-65
2023/09/09 13:31:58;;;;;;;5.35;4.25;;;;;;;-145.79;44.59;75872.63;5302382;28;20055;-65
2023/09/09 13:34:29;;;;;;;6.07;5.47;;;;;;;-145.79;45.31;75876.84;5291426;28;20036;-66
2023/09/09 13:37:01;;;;;;;6.72;4.75;;;;;;;-145.79;45.10;75855.66;5299193;28;20024;-66
2023/09/09 13:39:32;;;;;;;9.27;5.45;;;;;;;-145.79;44.71;75857.78;5291845;28;20028;-66
2023/09/09 13:42:04;;;;;;;15.85;13.90;;;;;;;-145.79;44.69;75857.78;5292798;28;20020;-66
2023/09/09 13:44:35;;;;;;;14.25;12.60;;;;;;;-145.79;44.45;75862.03;5303982;28;20114;-66
2023/09/09 13:47:06;;;;;;;4.93;4.32;;;;;;;-145.79;44.92;75830.25;5295071;28;20048;-66
2023/09/09 13:49:38;;;;;;;14.07;12.23;;;;;;;-145.79;44.61;75819.66;5296027;28;20051;-66
2023/09/09 13:52:10;;;;;;;7.97;7.03;;;;;;;-145.79;44.42;75830.25;5295751;28;20024;-67
2023/09/09 13:54:43;;;;;;;6.57;5.22;;;;;;;-145.79;43.95;75830.25;5303200;28;20017;-65
2023/09/09 13:57:15;;;;;;;6.93;4.68;;;;;;;-145.79;44.54;75828.13;5296323;28;20426;-64
2023/09/09 13:59:46;;;;;;;4.93;4.35;;;;;;;-145.79;44.39;75804.81;5294971;28;20028;-64
2023/09/09 14:02:17;;;;;;;25.05;22.63;;;;;;;-145.79;44.26;75821.75;5303596;28;20032;-65
2023/09/09 14:04:49;;;;;;;13.07;11.23;;;;;;;-145.79;44.33;75826.00;5292822;28;20016;-65
2023/09/09 14:07:21;;;;;;;8.27;5.20;;;;;;;-145.79;44.89;75817.53;5297669;28;20043;-66
2023/09/09 14:09:52;;;;;;;7.57;4.97;;;;;;;-145.79;44.49;75813.28;5291150;28;20077;-65
2023/09/09 14:12:24;;;;;;;9.65;4.45;;;;;;;-145.79;44.60;75798.47;5293392;28;20087;-64
2023/09/09 14:14:55;;;;;;;5.85;5.22;;;;;;;-145.79;44.91;75809.06;5289413;28;20024;-66
2023/09/09 14:17:26;;;;;;;8.60;5.25;;;;;;;-145.79;44.60;75809.06;5297112;28;20029;-65
2023/09/09 14:19:58;;;;;;;6.38;5.60;;;;;;;-145.79;44.18;75813.28;5298333;28;20146;-64
2023/09/09 14:22:29;;;;;;;6.82;5.18;;;;;;;-145.79;45.43;75809.06;5293081;28;20086;-65
2023/09/09 14:25:00;;;;;;;11.82;6.47;;;;;;;-145.79;45.07;75821.75;5291200;28;20036;-66
2023/09/09 14:27:32;;;;;;;7.15;6.40;;;;;;;-145.79;45.23;75826.00;5300876;28;20016;-65
2023/09/09 14:30:04;;;;;;;8.57;5.88;;;;;;;-145.79;45.21;75830.25;5293256;28;20484;-65
2023/09/09 14:32:35;;;;;;;10.50;6.45;;;;;;;-145.79;45.17;75828.13;5297221;28;20070;-66
2023/09/09 14:35:07;;;;;;;6.93;5.15;;;;;;;-145.79;44.99;75817.53;5293800;28;20036;-66
2023/09/09 14:37:38;;;;;;;15.90;12.65;;;;;;;-145.79;45.03;75823.88;5291971;28;20027;-66
2023/09/09 14:40:09;;;;;;;14.77;9.75;;;;;;;-145.79;44.65;75815.41;5294265;28;20036;-66
2023/09/09 14:42:41;;;;;;;7.68;6.18;;;;;;;-145.79;44.93;75828.13;5291599;28;20039;-66
2023/09/09 14:45:12;;;;;;;8.43;5.25;;;;;;;-145.79;44.93;75842.97;5298181;28;20043;-66
2023/09/09 14:47:44;;;;;;;8.52;7.43;;;;;;;-145.79;44.70;75838.72;5287838;28;20019;-66
2023/09/09 14:50:15;;;;;;;8.05;5.45;;;;;;;-145.79;44.26;75821.75;5293751;28;20502;-66
2023/09/09 14:52:47;;;;;;;5.65;5.10;;;;;;;-145.79;44.67;75834.47;5291285;28;20081;-66
2023/09/09 14:55:19;;;;;;;5.43;4.57;;;;;;;-145.79;44.58;75804.81;5291712;28;20028;-66
2023/09/09 14:57:50;;;;;;;11.00;8.95;;;;;;;-145.79;44.18;75811.19;5294404;28;20375;-65
2023/09/09 15:00:22;;;;;;;9.27;5.75;;;;;;;-145.79;44.12;75819.66;5295153;28;20032;-65
2023/09/09 15:02:53;;;;;;;7.45;4.47;;;;;;;-145.79;43.77;75842.97;5294421;28;20024;-66
2023/09/09 15:05:24;;;;;;;8.48;6.10;;;;;;;-145.79;43.51;75819.66;5294625;28;20092;-66
2023/09/09 15:07:56;;;;;;;15.30;13.30;;;;;;;-145.79;44.64;75817.53;5290826;28;20021;-66
2023/09/09 15:10:27;;;;;;;10.15;6.25;;;;;;;-145.79;44.16;75847.19;5290992;28;20116;-66
2023/09/09 15:12:58;;;;;;;10.68;5.30;;;;;;;-145.79;44.62;75826.00;5294172;28;20482;-65
2023/09/09 15:15:30;;;;;;;7.68;4.95;;;;;;;-145.79;44.97;75838.72;5303107;28;20036;-67
2023/09/09 15:18:03;;;;;;;11.48;6.47;;;;;;;-145.79;45.31;75838.72;5297051;28;20025;-67
2023/09/09 15:20:35;;;;;;;5.57;5.07;;;;;;;-145.79;45.34;75842.97;5288909;28;20025;-67
2023/09/09 15:23:06;;;;;;;7.90;5.13;;;;;;;-145.79;45.85;75836.59;5293652;28;20155;-68
2023/09/09 15:25:38;;;;;;;30.48;27.33;;;;;;;-145.79;45.20;75838.72;5294158;28;20031;-70
2023/09/09 15:28:15;;;;;;;6.82;5.30;;;;;;;-145.79;45.60;75838.72;5293894;28;20442;-69
2023/09/09 15:30:48;;;;;;;67.43;61.83;;;;;;;-145.79;45.72;75853.56;5302436;28;20021;-68
2023/09/09 15:33:19;;;;;;;10.10;7.32;;;;;;;-145.79;46.06;75838.72;5293726;28;20043;-68
2023/09/09 15:35:57;;;;;;;9.80;6.07;;;;;;;-145.79;46.36;75851.44;5293872;28;20036;-67
2023/09/09 15:38:28;;;;;;;7.07;5.50;;;;;;;-145.79;45.72;75847.19;5292257;28;20032;-68
2023/09/09 15:41:00;;;;;;;7.10;5.50;;;;;;;-145.79;45.35;75838.72;5289955;28;20047;-68
2023/09/09 15:43:31;;;;;;;7.68;5.90;;;;;;;-145.79;45.62;75840.84;5297166;28;20031;-68
2023/09/09 15:46:04;;;;;;;7.57;5.43;;;;;;;-145.79;45.62;75862.03;5295170;28;20040;-67
2023/09/09 15:48:36;;;;;;;12.32;10.98;;;;;;;-145.79;45.92;75847.19;5298174;28;20028;-69
2023/09/09 15:51:07;;;;;;;9.00;6.47;;;;;;;-145.79;45.06;75870.50;5299057;28;20028;-68
2023/09/09 15:53:38;;;;;;;10.38;5.28;;;;;;;-145.79;45.74;75842.97;5297925;28;20529;-68
2023/09/09 15:56:11;;;;;;;8.48;6.78;;;;;;;-145.79;46.07;75862.03;5296842;28;20452;-68
2023/09/09 15:58:43;;;;;;;6.32;5.13;;;;;;;-145.79;45.78;75842.97;5296078;28;20024;-68
2023/09/09 16:01:15;;;;;;;6.55;5.55;;;;;;;-145.79;46.45;75855.66;5297608;28;20448;-68
2023/09/09 16:03:46;;;;;;;9.02;5.63;;;;;;;-145.79;45.15;75849.31;5297921;28;20095;-68
2023/09/09 16:06:17;;;;;;;8.02;5.22;;;;;;;-145.79;44.92;75851.44;5299901;28;20115;-68
2023/09/09 16:08:49;;;;;;;7.70;5.38;;;;;;;-145.79;45.40;75857.78;5299671;28;20024;-68
2023/09/09 16:11:20;;;;;;;8.77;5.22;;;;;;;-145.79;45.58;75853.56;5295599;28;20067;-67
2023/09/09 16:13:51;;;;;;;7.40;5.13;;;;;;;-145.79;45.95;75847.19;5296236;28;20085;-68
2023/09/09 16:16:23;;;;;;;8.00;5.03;;;;;;;-145.79;45.92;75845.06;5297770;28;20028;-68
2023/09/09 16:18:54;;;;;;;8.95;6.07;;;;;;;-145.79;46.18;75874.75;5295733;28;20027;-67
2023/09/09 16:21:25;;;;;;;9.13;6.25;;;;;;;-145.79;46.14;75849.31;5299373;28;20044;-68
2023/09/09 16:23:57;;;;;;;7.38;5.70;;;;;;;-145.79;46.59;75864.16;5296002;28;20016;-68
2023/09/09 16:26:29;;;;;;;10.52;5.97;;;;;;;-145.79;46.49;75855.66;5286622;28;20040;-68
2023/09/09 16:29:00;;;;;;;10.43;6.78;;;;;;;-145.79;45.19;75851.44;5290630;28;20383;-67
2023/09/09 16:31:32;;;;;;;9.02;6.40;;;;;;;-145.79;45.26;75855.66;5302238;28;20035;-68
2023/09/09 16:34:03;;;;;;;6.95;5.68;;;;;;;-145.79;45.81;75859.91;5294469;28;20035;-68
2023/09/09 16:36:34;;;;;;;14.38;6.07;;;;;;;-145.79;46.61;75862.03;5301278;28;20402;-68
2023/09/09 16:39:05;;;;;;;7.45;5.80;;;;;;;-145.79;46.96;75870.50;5300823;28;20108;-68
2023/09/09 16:41:37;;;;;;;7.90;5.93;;;;;;;-145.79;47.20;75881.09;5292165;28;20312;-68
2023/09/09 16:44:08;;;;;;;7.13;5.95;;;;;;;-145.79;47.49;75891.69;5294781;28;20064;-69
2023/09/09 16:46:39;;;;;;;8.05;7.25;;;;;;;-145.79;47.61;75898.03;5287494;28;20450;-67
2023/09/09 16:49:11;;;;;;;9.95;6.40;;;;;;;-145.79;48.09;75917.13;5291480;28;21694;-68
2023/09/09 16:51:42;;;;;;;9.00;6.50;;;;;;;-145.79;48.11;75910.75;5291203;28;20025;-68
2023/09/09 16:54:14;;;;;;;6.63;5.78;;;;;;;-145.79;48.60;75919.22;5294621;28;20028;-67
